sensor_id;sensor_type;location;lat;lon;timestamp;pressure;altitude;pressure_sealevel;temperature;humidity
61318;BME280;47201;40.428;-8.436;2022-12-18T00:00:43;101085.63;;;10.74;100.00
61318;BME280;47201;40.428;-8.436;2022-12-18T00:02:44;101103.91;;;10.68;100.00
61318;BME280;47201;40.428;-8.436;2022-12-18T00:04:45;101095.19;;;10.66;100.00
61318;BME280;47201;40.428;-8.436;2022-12-18T00:06:45;101100.41;;;10.64;100.00
61318;BME280;47201;40.428;-8.436;2022-12-18T00:08:47;101096.88;;;10.54;100.00
61318;BME280;47201;40.428;-8.436;2022-12-18T00:10:47;101102.09;;;10.51;100.00
61318;BME280;47201;40.428;-8.436;2022-12-18T00:12:48;101096.84;;;10.43;100.00
61318;BME280;47201;40.428;-8.436;2022-12-18T00:14:49;101089.75;;;10.30;100.00
61318;BME280;47201;40.428;-8.436;2022-12-18T00:16:50;101088.84;;;10.25;100.00
61318;BME280;47201;40.428;-8.436;2022-12-18T00:18:53;101087.13;;;10.28;100.00
61318;BME280;47201;40.428;-8.436;2022-12-18T00:20:59;101086.28;;;10.32;100.00
61318;BME280;47201;40.428;-8.436;2022-12-18T00:23:00;101079.28;;;10.28;100.00
61318;BME280;47201;40.428;-8.436;2022-12-18T00:25:01;101085.41;;;10.27;100.00
61318;BME280;47201;40.428;-8.436;2022-12-18T00:27:01;101083.78;;;10.51;100.00
61318;BME280;47201;40.428;-8.436;2022-12-18T00:29:12;101093.44;;;10.61;100.00
61318;BME280;47201;40.428;-8.436;2022-12-18T00:31:14;101091.72;;;10.70;100.00
61318;BME280;47201;40.428;-8.436;2022-12-18T00:33:15;101089.16;;;10.79;100.00
61318;BME280;47201;40.428;-8.436;2022-12-18T00:35:16;101090.03;;;10.87;100.00
61318;BME280;47201;40.428;-8.436;2022-12-18T00:37:17;101069.13;;;10.90;100.00
61318;BME280;47201;40.428;-8.436;2022-12-18T00:39:17;101072.66;;;11.05;100.00
61318;BME280;47201;40.428;-8.436;2022-12-18T00:41:19;101082.25;;;11.10;100.00
61318;BME280;47201;40.428;-8.436;2022-12-18T00:43:39;101082.28;;;11.17;100.00
61318;BME280;47201;40.428;-8.436;2022-12-18T00:45:40;101090.97;;;11.17;100.00
61318;BME280;47201;40.428;-8.436;2022-12-18T00:47:41;101092.72;;;11.18;100.00
61318;BME280;47201;40.428;-8.436;2022-12-18T00:49:42;101092.75;;;11.17;100.00
61318;BME280;47201;40.428;-8.436;2022-12-18T00:51:43;101082.25;;;11.10;100.00
61318;BME280;47201;40.428;-8.436;2022-12-18T00:53:44;101088.38;;;11.08;100.00
61318;BME280;47201;40.428;-8.436;2022-12-18T00:55:45;101081.34;;;10.98;100.00
61318;BME280;47201;40.428;-8.436;2022-12-18T00:57:46;101083.97;;;10.96;100.00
61318;BME280;47201;40.428;-8.436;2022-12-18T00:59:47;101088.31;;;10.89;100.00
61318;BME280;47201;40.428;-8.436;2022-12-18T01:01:48;101090.06;;;10.90;100.00
61318;BME280;47201;40.428;-8.436;2022-12-18T01:03:49;101097.88;;;10.87;100.00
61318;BME280;47201;40.428;-8.436;2022-12-18T01:05:50;101102.25;;;10.85;100.00
61318;BME280;47201;40.428;-8.436;2022-12-18T01:07:52;101107.47;;;10.87;100.00
61318;BME280;47201;40.428;-8.436;2022-12-18T01:09:53;101106.59;;;10.85;100.00
61318;BME280;47201;40.428;-8.436;2022-12-18T01:11:54;101124.06;;;10.90;100.00
61318;BME280;47201;40.428;-8.436;2022-12-18T01:13:55;101118.81;;;10.89;100.00
61318;BME280;47201;40.428;-8.436;2022-12-18T01:15:56;101120.56;;;10.91;100.00
61318;BME280;47201;40.428;-8.436;2022-12-18T01:17:56;101120.56;;;10.87;100.00
61318;BME280;47201;40.428;-8.436;2022-12-18T01:20:00;101124.91;;;10.91;100.00
61318;BME280;47201;40.428;-8.436;2022-12-18T01:22:01;101115.31;;;10.82;100.00
61318;BME280;47201;40.428;-8.436;2022-12-18T01:24:01;101126.66;;;10.84;100.00
61318;BME280;47201;40.428;-8.436;2022-12-18T01:26:05;101129.28;;;10.83;100.00
61318;BME280;47201;40.428;-8.436;2022-12-18T01:28:06;101120.53;;;10.81;100.00
61318;BME280;47201;40.428;-8.436;2022-12-18T01:30:07;101123.16;;;10.82;100.00
61318;BME280;47201;40.428;-8.436;2022-12-18T01:32:08;101121.41;;;10.78;100.00
61318;BME280;47201;40.428;-8.436;2022-12-18T01:34:09;101122.25;;;10.74;100.00
61318;BME280;47201;40.428;-8.436;2022-12-18T01:36:22;101117.00;;;10.68;100.00
61318;BME280;47201;40.428;-8.436;2022-12-18T01:38:23;101108.25;;;10.66;100.00
61318;BME280;47201;40.428;-8.436;2022-12-18T01:40:24;101102.13;;;10.62;100.00
61318;BME280;47201;40.428;-8.436;2022-12-18T01:42:26;101105.63;;;10.56;100.00
61318;BME280;47201;40.428;-8.436;2022-12-18T01:46:55;101103.84;;;10.49;100.00
61318;BME280;47201;40.428;-8.436;2022-12-18T01:48:58;101104.69;;;10.51;100.00
61318;BME280;47201;40.428;-8.436;2022-12-18T01:51:01;101109.03;;;10.47;100.00
61318;BME280;47201;40.428;-8.436;2022-12-18T01:53:12;101114.25;;;10.47;100.00
61318;BME280;47201;40.428;-8.436;2022-12-18T01:55:17;101116.88;;;10.46;100.00
61318;BME280;47201;40.428;-8.436;2022-12-18T01:57:19;101109.94;;;10.50;100.00
61318;BME280;47201;40.428;-8.436;2022-12-18T01:59:20;101108.22;;;10.56;100.00
61318;BME280;47201;40.428;-8.436;2022-12-18T02:01:22;101120.44;;;10.59;100.00
61318;BME280;47201;40.428;-8.436;2022-12-18T02:03:23;101122.19;;;10.61;100.00
61318;BME280;47201;40.428;-8.436;2022-12-18T02:05:36;101120.44;;;10.62;100.00
61318;BME280;47201;40.428;-8.436;2022-12-18T02:10:16;101120.47;;;10.67;100.00
61318;BME280;47201;40.428;-8.436;2022-12-18T02:17:23;101110.03;;;10.68;100.00
61318;BME280;47201;40.428;-8.436;2022-12-18T02:19:46;101114.41;;;10.72;100.00
61318;BME280;47201;40.428;-8.436;2022-12-18T02:22:04;101121.38;;;10.75;100.00
61318;BME280;47201;40.428;-8.436;2022-12-18T02:26:30;101113.53;;;10.75;100.00
61318;BME280;47201;40.428;-8.436;2022-12-18T02:28:49;101113.56;;;10.78;100.00
61318;BME280;47201;40.428;-8.436;2022-12-18T02:30:54;101112.69;;;10.82;100.00
61318;BME280;47201;40.428;-8.436;2022-12-18T02:32:57;101117.94;;;10.79;100.00
61318;BME280;47201;40.428;-8.436;2022-12-18T02:34:59;101123.13;;;10.76;100.00
61318;BME280;47201;40.428;-8.436;2022-12-18T02:37:06;101124.88;;;10.77;100.00
61318;BME280;47201;40.428;-8.436;2022-12-18T02:39:11;101121.38;;;10.76;100.00
61318;BME280;47201;40.428;-8.436;2022-12-18T02:41:19;101124.00;;;10.72;100.00
61318;BME280;47201;40.428;-8.436;2022-12-18T02:43:21;101118.75;;;10.75;100.00
61318;BME280;47201;40.428;-8.436;2022-12-18T02:45:22;101124.00;;;10.75;100.00
61318;BME280;47201;40.428;-8.436;2022-12-18T02:47:31;101126.63;;;10.78;100.00
61318;BME280;47201;40.428;-8.436;2022-12-18T02:56:51;101128.41;;;10.88;100.00
61318;BME280;47201;40.428;-8.436;2022-12-18T02:59:16;101132.78;;;10.95;100.00
61318;BME280;47201;40.428;-8.436;2022-12-18T03:03:54;101126.66;;;10.90;100.00
61318;BME280;47201;40.428;-8.436;2022-12-18T03:06:03;101137.16;;;10.97;100.00
61318;BME280;47201;40.428;-8.436;2022-12-18T03:08:14;101129.31;;;10.93;100.00
61318;BME280;47201;40.428;-8.436;2022-12-18T03:10:18;101134.53;;;10.95;100.00
61318;BME280;47201;40.428;-8.436;2022-12-18T03:12:24;101119.72;;;10.92;100.00
61318;BME280;47201;40.428;-8.436;2022-12-18T03:14:33;101126.66;;;10.87;100.00
61318;BME280;47201;40.428;-8.436;2022-12-18T03:16:38;101125.81;;;10.91;100.00
61318;BME280;47201;40.428;-8.436;2022-12-18T03:18:48;101126.69;;;10.97;100.00
61318;BME280;47201;40.428;-8.436;2022-12-18T03:20:51;101124.94;;;10.95;100.00
61318;BME280;47201;40.428;-8.436;2022-12-18T03:23:02;101124.97;;;10.97;100.00
61318;BME280;47201;40.428;-8.436;2022-12-18T03:25:06;101122.31;;;10.95;100.00
61318;BME280;47201;40.428;-8.436;2022-12-18T03:27:12;101122.31;;;10.89;100.00
61318;BME280;47201;40.428;-8.436;2022-12-18T03:30:00;101116.16;;;10.81;100.00
61318;BME280;47201;40.428;-8.436;2022-12-18T03:32:03;101123.16;;;10.81;100.00
61318;BME280;47201;40.428;-8.436;2022-12-18T03:34:14;101129.25;;;10.86;100.00
61318;BME280;47201;40.428;-8.436;2022-12-18T03:36:19;101126.69;;;10.89;100.00
61318;BME280;47201;40.428;-8.436;2022-12-18T03:38:21;101131.03;;;10.90;100.00
61318;BME280;47201;40.428;-8.436;2022-12-18T03:43:02;101134.56;;;11.03;100.00
61318;BME280;47201;40.428;-8.436;2022-12-18T03:45:11;101127.59;;;11.03;100.00
61318;BME280;47201;40.428;-8.436;2022-12-18T03:47:19;101130.22;;;11.03;100.00
61318;BME280;47201;40.428;-8.436;2022-12-18T03:52:07;101127.56;;;10.95;100.00
61318;BME280;47201;40.428;-8.436;2022-12-18T03:54:12;101126.72;;;11.01;100.00
61318;BME280;47201;40.428;-8.436;2022-12-18T03:56:22;101117.13;;;10.99;100.00
61318;BME280;47201;40.428;-8.436;2022-12-18T03:58:26;101117.13;;;11.06;100.00
61318;BME280;47201;40.428;-8.436;2022-12-18T04:00:42;101111.06;;;11.09;100.00
61318;BME280;47201;40.428;-8.436;2022-12-18T04:02:51;101120.63;;;11.10;100.00
61318;BME280;47201;40.428;-8.436;2022-12-18T04:05:00;101118.91;;;11.10;100.00
61318;BME280;47201;40.428;-8.436;2022-12-18T04:07:04;101116.28;;;11.09;100.00
61318;BME280;47201;40.428;-8.436;2022-12-18T04:09:10;101114.53;;;11.08;100.00
61318;BME280;47201;40.428;-8.436;2022-12-18T04:11:16;101107.56;;;11.07;100.00
61318;BME280;47201;40.428;-8.436;2022-12-18T04:13:29;101113.66;;;11.14;100.00
61318;BME280;47201;40.428;-8.436;2022-12-18T04:15:36;101104.06;;;11.09;100.00
61318;BME280;47201;40.428;-8.436;2022-12-18T04:17:46;101102.31;;;11.07;100.00
61318;BME280;47201;40.428;-8.436;2022-12-18T04:19:47;101111.88;;;11.00;100.00
61318;BME280;47201;40.428;-8.436;2022-12-18T04:21:48;101109.28;;;11.02;100.00
61318;BME280;47201;40.428;-8.436;2022-12-18T04:23:49;101110.16;;;11.10;100.00
61318;BME280;47201;40.428;-8.436;2022-12-18T04:25:52;101107.56;;;11.13;100.00
61318;BME280;47201;40.428;-8.436;2022-12-18T04:28:06;101111.03;;;11.10;100.00
61318;BME280;47201;40.428;-8.436;2022-12-18T04:30:08;101109.31;;;11.13;100.00
61318;BME280;47201;40.428;-8.436;2022-12-18T04:32:09;101113.66;;;11.14;100.00
61318;BME280;47201;40.428;-8.436;2022-12-18T04:34:11;101120.66;;;11.19;100.00
61318;BME280;47201;40.428;-8.436;2022-12-18T04:36:17;101104.06;;;11.14;100.00
61318;BME280;47201;40.428;-8.436;2022-12-18T04:38:19;101112.78;;;11.15;100.00
61318;BME280;47201;40.428;-8.436;2022-12-18T04:40:25;101104.97;;;11.18;100.00
61318;BME280;47201;40.428;-8.436;2022-12-18T04:42:26;101100.59;;;11.23;100.00
61318;BME280;47201;40.428;-8.436;2022-12-18T04:44:27;101104.09;;;11.23;100.00
61318;BME280;47201;40.428;-8.436;2022-12-18T04:46:27;101092.75;;;11.26;100.00
61318;BME280;47201;40.428;-8.436;2022-12-18T04:48:28;101098.84;;;11.22;100.00
61318;BME280;47201;40.428;-8.436;2022-12-18T04:50:29;101099.72;;;11.18;100.00
61318;BME280;47201;40.428;-8.436;2022-12-18T04:52:30;101098.84;;;11.14;100.00
61318;BME280;47201;40.428;-8.436;2022-12-18T04:54:31;101097.06;;;11.08;100.00
61318;BME280;47201;40.428;-8.436;2022-12-18T04:56:31;101097.94;;;11.01;100.00
61318;BME280;47201;40.428;-8.436;2022-12-18T04:58:32;101094.47;;;11.01;100.00
61318;BME280;47201;40.428;-8.436;2022-12-18T05:00:33;101100.53;;;11.01;100.00
61318;BME280;47201;40.428;-8.436;2022-12-18T05:02:33;101099.66;;;10.91;100.00
61318;BME280;47201;40.428;-8.436;2022-12-18T05:04:34;101102.25;;;10.87;100.00
61318;BME280;47201;40.428;-8.436;2022-12-18T05:06:35;101097.03;;;10.90;100.00
61318;BME280;47201;40.428;-8.436;2022-12-18T05:08:35;101089.19;;;10.90;100.00
61318;BME280;47201;40.428;-8.436;2022-12-18T05:10:36;101097.06;;;11.01;100.00
61318;BME280;47201;40.428;-8.436;2022-12-18T05:12:40;101090.97;;;11.05;100.00
61318;BME280;47201;40.428;-8.436;2022-12-18T05:14:58;101088.34;;;11.00;100.00
61318;BME280;47201;40.428;-8.436;2022-12-18T05:16:59;101090.97;;;11.03;100.00
61318;BME280;47201;40.428;-8.436;2022-12-18T05:18:59;101098.81;;;11.06;100.00
61318;BME280;47201;40.428;-8.436;2022-12-18T05:21:01;101103.16;;;11.01;100.00
61318;BME280;47201;40.428;-8.436;2022-12-18T05:23:01;101107.50;;;10.99;100.00
61318;BME280;47201;40.428;-8.436;2022-12-18T05:25:02;101113.59;;;10.92;100.00
61318;BME280;47201;40.428;-8.436;2022-12-18T05:27:03;101112.75;;;10.94;100.00
61318;BME280;47201;40.428;-8.436;2022-12-18T05:29:03;101117.97;;;10.96;100.00
61318;BME280;47201;40.428;-8.436;2022-12-18T05:31:04;101118.84;;;10.95;100.00
61318;BME280;47201;40.428;-8.436;2022-12-18T05:33:05;101120.63;;;11.05;100.00
61318;BME280;47201;40.428;-8.436;2022-12-18T05:35:07;101114.53;;;11.14;100.00
61318;BME280;47201;40.428;-8.436;2022-12-18T05:37:08;101112.81;;;11.16;100.00
61318;BME280;47201;40.428;-8.436;2022-12-18T05:39:09;101121.53;;;11.18;100.00
61318;BME280;47201;40.428;-8.436;2022-12-18T05:41:10;101113.69;;;11.17;100.00
61318;BME280;47201;40.428;-8.436;2022-12-18T05:43:10;101118.91;;;11.09;100.00
61318;BME280;47201;40.428;-8.436;2022-12-18T05:45:11;101125.00;;;11.09;100.00
61318;BME280;47201;40.428;-8.436;2022-12-18T05:47:12;101120.63;;;11.05;100.00
61318;BME280;47201;40.428;-8.436;2022-12-18T05:49:12;101123.22;;;10.99;100.00
61318;BME280;47201;40.428;-8.436;2022-12-18T05:51:15;101131.06;;;10.94;100.00
61318;BME280;47201;40.428;-8.436;2022-12-18T05:53:18;101131.91;;;10.90;100.00
61318;BME280;47201;40.428;-8.436;2022-12-18T05:55:19;101142.34;;;10.86;100.00
61318;BME280;47201;40.428;-8.436;2022-12-18T05:57:20;101148.44;;;10.85;100.00
61318;BME280;47201;40.428;-8.436;2022-12-18T05:59:21;101143.19;;;10.80;100.00
61318;BME280;47201;40.428;-8.436;2022-12-18T06:01:25;101144.06;;;10.82;100.00
61318;BME280;47201;40.428;-8.436;2022-12-18T06:03:26;101146.69;;;10.81;100.00
61318;BME280;47201;40.428;-8.436;2022-12-18T06:05:27;101149.31;;;10.82;100.00
61318;BME280;47201;40.428;-8.436;2022-12-18T06:07:28;101150.19;;;10.84;100.00
61318;BME280;47201;40.428;-8.436;2022-12-18T06:09:29;101153.69;;;10.88;100.00
61318;BME280;47201;40.428;-8.436;2022-12-18T06:11:29;101156.28;;;10.83;100.00
61318;BME280;47201;40.428;-8.436;2022-12-18T06:13:30;101153.66;;;10.77;100.00
61318;BME280;47201;40.428;-8.436;2022-12-18T06:15:31;101155.41;;;10.78;100.00
61318;BME280;47201;40.428;-8.436;2022-12-18T06:17:33;101156.25;;;10.78;100.00
61318;BME280;47201;40.428;-8.436;2022-12-18T06:19:33;101158.00;;;10.78;100.00
61318;BME280;47201;40.428;-8.436;2022-12-18T06:21:34;101146.63;;;10.73;100.00
61318;BME280;47201;40.428;-8.436;2022-12-18T06:23:35;101166.72;;;10.80;100.00
61318;BME280;47201;40.428;-8.436;2022-12-18T06:25:39;101158.91;;;10.82;100.00
61318;BME280;47201;40.428;-8.436;2022-12-18T06:27:40;101162.38;;;10.82;100.00
61318;BME280;47201;40.428;-8.436;2022-12-18T06:29:41;101158.00;;;10.81;100.00
61318;BME280;47201;40.428;-8.436;2022-12-18T06:31:41;101157.16;;;10.79;100.00
61318;BME280;47201;40.428;-8.436;2022-12-18T06:33:42;101157.16;;;10.82;100.00
61318;BME280;47201;40.428;-8.436;2022-12-18T06:35:43;101155.44;;;10.83;100.00
61318;BME280;47201;40.428;-8.436;2022-12-18T06:37:44;101156.31;;;10.86;100.00
61318;BME280;47201;40.428;-8.436;2022-12-18T06:39:44;101151.94;;;10.85;100.00
61318;BME280;47201;40.428;-8.436;2022-12-18T06:41:45;101165.03;;;10.85;100.00
61318;BME280;47201;40.428;-8.436;2022-12-18T06:43:46;101165.00;;;10.88;100.00
61318;BME280;47201;40.428;-8.436;2022-12-18T06:45:47;101164.13;;;10.82;100.00
61318;BME280;47201;40.428;-8.436;2022-12-18T06:47:53;101161.50;;;10.78;100.00
61318;BME280;47201;40.428;-8.436;2022-12-18T06:49:54;101159.72;;;10.73;100.00
61318;BME280;47201;40.428;-8.436;2022-12-18T06:51:54;101164.06;;;10.66;100.00
61318;BME280;47201;40.428;-8.436;2022-12-18T06:53:55;101157.09;;;10.68;100.00
61318;BME280;47201;40.428;-8.436;2022-12-18T06:56:03;101164.94;;;10.68;100.00
61318;BME280;47201;40.428;-8.436;2022-12-18T06:58:04;101157.97;;;10.70;100.00
61318;BME280;47201;40.428;-8.436;2022-12-18T07:00:06;101164.09;;;10.71;100.00
61318;BME280;47201;40.428;-8.436;2022-12-18T07:02:13;101167.59;;;10.76;100.00
61318;BME280;47201;40.428;-8.436;2022-12-18T07:04:14;101162.31;;;10.71;100.00
61318;BME280;47201;40.428;-8.436;2022-12-18T07:06:17;101171.94;;;10.77;100.00
61318;BME280;47201;40.428;-8.436;2022-12-18T07:08:18;101164.06;;;10.74;100.00
61318;BME280;47201;40.428;-8.436;2022-12-18T07:10:19;101164.09;;;10.71;100.00
61318;BME280;47201;40.428;-8.436;2022-12-18T07:12:19;101171.03;;;10.69;100.00
61318;BME280;47201;40.428;-8.436;2022-12-18T07:14:20;101165.81;;;10.69;100.00
61318;BME280;47201;40.428;-8.436;2022-12-18T07:16:21;101171.91;;;10.68;100.00
61318;BME280;47201;40.428;-8.436;2022-12-18T07:18:22;101175.38;;;10.67;100.00
61318;BME280;47201;40.428;-8.436;2022-12-18T07:20:23;101173.66;;;10.67;100.00
61318;BME280;47201;40.428;-8.436;2022-12-18T07:22:25;101171.03;;;10.70;100.00
61318;BME280;47201;40.428;-8.436;2022-12-18T07:24:26;101184.06;;;10.66;100.00
61318;BME280;47201;40.428;-8.436;2022-12-18T07:26:27;101180.56;;;10.60;100.00
61318;BME280;47201;40.428;-8.436;2022-12-18T07:28:27;101177.09;;;10.63;100.00
61318;BME280;47201;40.428;-8.436;2022-12-18T07:30:28;101171.06;;;10.72;100.00
61318;BME280;47201;40.428;-8.436;2022-12-18T07:32:30;101181.63;;;10.93;100.00
61318;BME280;47201;40.428;-8.436;2022-12-18T07:34:31;101183.38;;;10.98;100.00
61318;BME280;47201;40.428;-8.436;2022-12-18T07:36:31;101178.16;;;11.04;100.00
61318;BME280;47201;40.428;-8.436;2022-12-18T07:38:34;101176.44;;;11.06;100.00
61318;BME280;47201;40.428;-8.436;2022-12-18T07:40:35;101168.63;;;11.09;100.00
61318;BME280;47201;40.428;-8.436;2022-12-18T07:42:36;101173.84;;;11.12;100.00
61318;BME280;47201;40.428;-8.436;2022-12-18T07:44:39;101166.88;;;11.14;100.00
61318;BME280;47201;40.428;-8.436;2022-12-18T07:46:40;101172.97;;;11.13;100.00
61318;BME280;47201;40.428;-8.436;2022-12-18T07:48:44;101172.09;;;11.11;100.00
61318;BME280;47201;40.428;-8.436;2022-12-18T07:50:45;101161.59;;;11.00;100.00
61318;BME280;47201;40.428;-8.436;2022-12-18T07:52:46;101174.72;;;11.09;100.00
61318;BME280;47201;40.428;-8.436;2022-12-18T07:54:47;101168.56;;;10.98;100.00
61318;BME280;47201;40.428;-8.436;2022-12-18T07:56:51;101172.03;;;10.95;100.00
61318;BME280;47201;40.428;-8.436;2022-12-18T07:58:52;101171.16;;;10.95;100.00
61318;BME280;47201;40.428;-8.436;2022-12-18T08:00:52;101182.53;;;11.02;100.00
61318;BME280;47201;40.428;-8.436;2022-12-18T08:02:53;101198.22;;;11.06;100.00
61318;BME280;47201;40.428;-8.436;2022-12-18T08:04:54;101197.38;;;11.07;100.00
61318;BME280;47201;40.428;-8.436;2022-12-18T08:06:54;101199.13;;;11.08;100.00
61318;BME280;47201;40.428;-8.436;2022-12-18T08:08:55;101207.88;;;11.17;100.00
61318;BME280;47201;40.428;-8.436;2022-12-18T08:10:57;101207.03;;;11.22;100.00
61318;BME280;47201;40.428;-8.436;2022-12-18T08:12:57;101207.06;;;11.27;100.00
61318;BME280;47201;40.428;-8.436;2022-12-18T08:14:58;101212.28;;;11.30;100.00
61318;BME280;47201;40.428;-8.436;2022-12-18T08:16:59;101220.16;;;11.35;100.00
61318;BME280;47201;40.428;-8.436;2022-12-18T08:19:00;101219.28;;;11.30;100.00
61318;BME280;47201;40.428;-8.436;2022-12-18T08:21:11;101222.78;;;11.35;100.00
61318;BME280;47201;40.428;-8.436;2022-12-18T08:23:12;101222.78;;;11.35;100.00
61318;BME280;47201;40.428;-8.436;2022-12-18T08:25:13;101225.38;;;11.36;100.00
61318;BME280;47201;40.428;-8.436;2022-12-18T08:27:13;101243.75;;;11.42;100.00
61318;BME280;47201;40.428;-8.436;2022-12-18T08:29:15;101236.75;;;11.40;100.00
61318;BME280;47201;40.428;-8.436;2022-12-18T08:31:15;101234.13;;;11.40;100.00
61318;BME280;47201;40.428;-8.436;2022-12-18T08:33:16;101249.84;;;11.43;100.00
61318;BME280;47201;40.428;-8.436;2022-12-18T08:35:17;101252.47;;;11.43;100.00
61318;BME280;47201;40.428;-8.436;2022-12-18T08:37:18;101242.84;;;11.37;100.00
61318;BME280;47201;40.428;-8.436;2022-12-18T08:39:18;101247.19;;;11.31;100.00
61318;BME280;47201;40.428;-8.436;2022-12-18T08:41:19;101244.56;;;11.27;100.00
61318;BME280;47201;40.428;-8.436;2022-12-18T08:43:20;101251.53;;;11.24;100.00
61318;BME280;47201;40.428;-8.436;2022-12-18T08:45:39;101247.16;;;11.20;100.00
61318;BME280;47201;40.428;-8.436;2022-12-18T08:47:40;101232.28;;;11.09;100.00
61318;BME280;47201;40.428;-8.436;2022-12-18T08:49:41;101242.75;;;11.13;100.00
61318;BME280;47201;40.428;-8.436;2022-12-18T08:51:41;101245.38;;;11.17;100.00
61318;BME280;47201;40.428;-8.436;2022-12-18T08:53:42;101249.78;;;11.26;100.00
61318;BME280;47201;40.428;-8.436;2022-12-18T08:55:43;101258.53;;;11.33;100.00
61318;BME280;47201;40.428;-8.436;2022-12-18T08:57:48;101261.22;;;11.51;100.00
61318;BME280;47201;40.428;-8.436;2022-12-18T08:59:49;101277.88;;;11.77;100.00
61318;BME280;47201;40.428;-8.436;2022-12-18T09:01:50;101275.38;;;12.21;100.00
61318;BME280;47201;40.428;-8.436;2022-12-18T09:03:50;101283.22;;;12.82;100.00
61318;BME280;47201;40.428;-8.436;2022-12-18T09:05:51;101282.28;;;13.03;100.00
61318;BME280;47201;40.428;-8.436;2022-12-18T09:07:52;101266.59;;;12.91;100.00
61318;BME280;47201;40.428;-8.436;2022-12-18T09:09:53;101273.63;;;12.70;100.00
61318;BME280;47201;40.428;-8.436;2022-12-18T09:11:53;101276.25;;;12.56;100.00
61318;BME280;47201;40.428;-8.436;2022-12-18T09:13:55;101283.25;;;12.46;100.00
61318;BME280;47201;40.428;-8.436;2022-12-18T09:15:55;101284.97;;;12.44;100.00
61318;BME280;47201;40.428;-8.436;2022-12-18T09:17:56;101285.88;;;12.49;100.00
61318;BME280;47201;40.428;-8.436;2022-12-18T09:19:57;101278.84;;;12.85;100.00
61318;BME280;47201;40.428;-8.436;2022-12-18T09:21:57;101282.19;;;13.37;100.00
61318;BME280;47201;40.428;-8.436;2022-12-18T09:23:58;101271.13;;;14.33;97.35
61318;BME280;47201;40.428;-8.436;2022-12-18T09:26:00;101259.03;;;15.77;85.62
61318;BME280;47201;40.428;-8.436;2022-12-18T09:28:12;101268.19;;;17.16;77.53
61318;BME280;47201;40.428;-8.436;2022-12-18T09:30:13;101280.13;;;18.51;70.86
61318;BME280;47201;40.428;-8.436;2022-12-18T09:32:14;101278.19;;;19.56;64.86
61318;BME280;47201;40.428;-8.436;2022-12-18T09:34:15;101283.31;;;20.19;61.68
61318;BME280;47201;40.428;-8.436;2022-12-18T09:36:18;101276.84;;;20.54;59.76
61318;BME280;47201;40.428;-8.436;2022-12-18T09:38:19;101297.06;;;20.58;60.30
61318;BME280;47201;40.428;-8.436;2022-12-18T09:40:23;101317.94;;;20.69;60.74
61318;BME280;47201;40.428;-8.436;2022-12-18T09:42:24;101308.75;;;20.53;62.08
61318;BME280;47201;40.428;-8.436;2022-12-18T09:46:34;101309.84;;;20.19;66.02
61318;BME280;47201;40.428;-8.436;2022-12-18T09:48:39;101314.50;;;20.92;63.85
61318;BME280;47201;40.428;-8.436;2022-12-18T09:50:41;101314.41;;;22.14;60.45
61318;BME280;47201;40.428;-8.436;2022-12-18T09:52:49;101323.00;;;23.27;57.89
61318;BME280;47201;40.428;-8.436;2022-12-18T09:57:31;101322.41;;;24.53;57.73
61318;BME280;47201;40.428;-8.436;2022-12-18T09:59:37;101329.00;;;24.63;59.21
61318;BME280;47201;40.428;-8.436;2022-12-18T10:01:39;101330.19;;;24.58;61.57
61318;BME280;47201;40.428;-8.436;2022-12-18T10:03:40;101324.47;;;24.11;64.57
61318;BME280;47201;40.428;-8.436;2022-12-18T10:05:53;101329.63;;;23.97;67.26
61318;BME280;47201;40.428;-8.436;2022-12-18T10:14:43;101345.84;;;25.00;68.82
61318;BME280;47201;40.428;-8.436;2022-12-18T10:21:11;101355.63;;;24.11;74.44
61318;BME280;47201;40.428;-8.436;2022-12-18T10:25:55;101357.81;;;25.11;72.49
61318;BME280;47201;40.428;-8.436;2022-12-18T10:28:10;101356.69;;;24.62;74.37
61318;BME280;47201;40.428;-8.436;2022-12-18T10:30:15;101345.41;;;23.82;77.46
61318;BME280;47201;40.428;-8.436;2022-12-18T10:32:38;101344.13;;;23.32;80.35
61318;BME280;47201;40.428;-8.436;2022-12-18T10:34:38;101345.66;;;23.97;78.49
61318;BME280;47201;40.428;-8.436;2022-12-18T10:36:38;101344.31;;;23.86;78.77
61318;BME280;47201;40.428;-8.436;2022-12-18T10:38:40;101343.44;;;23.67;79.04
61318;BME280;47201;40.428;-8.436;2022-12-18T10:43:27;101338.34;;;23.81;79.15
61318;BME280;47201;40.428;-8.436;2022-12-18T10:45:28;101340.63;;;24.08;78.36
61318;BME280;47201;40.428;-8.436;2022-12-18T10:47:29;101331.47;;;24.68;76.14
61318;BME280;47201;40.428;-8.436;2022-12-18T10:49:31;101339.31;;;25.24;74.22
61318;BME280;47201;40.428;-8.436;2022-12-18T10:51:36;101341.03;;;24.54;76.56
61318;BME280;47201;40.428;-8.436;2022-12-18T10:53:41;101336.06;;;24.29;77.39
61318;BME280;47201;40.428;-8.436;2022-12-18T10:55:45;101332.00;;;24.57;77.43
61318;BME280;47201;40.428;-8.436;2022-12-18T10:57:46;101323.97;;;24.03;78.86
61318;BME280;47201;40.428;-8.436;2022-12-18T10:59:51;101320.44;;;23.64;79.75
61318;BME280;47201;40.428;-8.436;2022-12-18T11:02:01;101325.47;;;23.51;79.93
61318;BME280;47201;40.428;-8.436;2022-12-18T11:04:08;101331.06;;;22.19;83.21
61318;BME280;47201;40.428;-8.436;2022-12-18T11:06:14;101320.59;;;20.42;89.94
61318;BME280;47201;40.428;-8.436;2022-12-18T11:08:20;101326.22;;;19.13;95.53
61318;BME280;47201;40.428;-8.436;2022-12-18T11:10:33;101321.44;;;18.22;100.00
61318;BME280;47201;40.428;-8.436;2022-12-18T11:12:35;101319.16;;;17.65;100.00
61318;BME280;47201;40.428;-8.436;2022-12-18T11:14:46;101318.78;;;17.39;100.00
61318;BME280;47201;40.428;-8.436;2022-12-18T11:16:47;101318.22;;;17.23;100.00